Omaha — WDC9423 — position and weather

sailwx.info

Track history (hours):
 
Tides and Currents Weather Stations Pressure Air Temp Water Temp Dewpoint Dewpoint Depression Visibility Wind Speed Wind Dir Waves Ship Positions

Omaha

Owner: Turn Services, LLC, New Orleans, LA. More information available from US FCC via Universal Licensing System and Coast Guard Vessel Documentation Center.

Last reported at 2016-Aug-04 22:09 UTC. Time now 2016-Aug-30 10:57 UTC.
Position N 29°55' W 089°56'.
Warning: this ship's position is 25 days out of date.

Length 13 m; draft 3.5 m.

Type: Pilot. MMSI: 367102030.

Date/timePositionNaut miles runAvg speedWind from/ knotsBaromVisibWave heightAir tempDewpointWater temp
2016-Aug-04 22:09N 29°55' W 089°56'0 0.0
2016-Aug-04 21:28N 29°55' W 089°56'0 0.0
2016-Aug-04 20:33N 29°55' W 089°56'0 0.0
2016-Aug-04 19:34N 29°55' W 089°56'0 0.0
2016-Aug-04 18:33N 29°55' W 089°56'0 0.0
2016-Aug-04 17:34N 29°55' W 089°56'0 0.0
2016-Aug-04 16:33N 29°55' W 089°56'0 0.0
2016-Aug-04 15:32N 29°55' W 089°56'0 0.0
2016-Aug-04 14:25N 29°55' W 089°56'0 0.0
2016-Aug-04 13:22N 29°55' W 089°56'0 0.0
2016-Aug-04 12:13N 29°55' W 089°56'0 0.0
2016-Aug-04 11:04N 29°55' W 089°56'0 0.0
2016-Aug-04 10:33N 29°55' W 089°56'0 0.5
2016-Aug-04 09:33N 29°55' W 089°56'0 0.3
2016-Aug-04 08:33N 29°55' W 089°57'0 0.0
2016-Aug-04 07:33N 29°55' W 089°57'1 0.5
2016-Aug-04 06:32N 29°55' W 089°56'0 0.0
2016-Aug-04 04:31N 29°55' W 089°56'0 0.1
2016-Aug-04 03:34N 29°55' W 089°56'1 0.6
2016-Aug-04 02:34N 29°55' W 089°56'3 3.2
2016-Aug-04 01:34N 29°56' W 089°59'3 2.7
2016-Aug-04 00:34N 29°55' W 089°56'1 0.5
2016-Aug-03 23:33N 29°55' W 089°56'0 0.0
2016-Aug-03 22:33N 29°55' W 089°56'0 0.0
2016-Aug-03 21:33N 29°55' W 089°56'0 0.0
2016-Aug-03 20:33N 29°55' W 089°56'0 0.0
2016-Aug-03 19:32N 29°55' W 089°56'0 0.0
2016-Aug-03 18:33N 29°55' W 089°56'0 0.0
2016-Aug-03 17:34N 29°55' W 089°56'0 0.0
2016-Aug-03 16:33N 29°55' W 089°56'0 0.0
2016-Aug-03 15:34N 29°55' W 089°56'0 0.0
2016-Aug-03 14:33N 29°55' W 089°56'0 0.0
2016-Aug-03 13:33N 29°55' W 089°56'0 0.0
2016-Aug-03 12:33N 29°55' W 089°56'0 0.0
2016-Aug-03 11:34N 29°55' W 089°56'0 0.0
2016-Aug-03 10:33N 29°55' W 089°56'1 0.6
2016-Aug-03 09:33N 29°55' W 089°56'0 0.1
2016-Aug-03 08:33N 29°55' W 089°56'0 0.0
2016-Aug-03 07:33N 29°55' W 089°56'0 0.0
2016-Aug-03 06:33N 29°55' W 089°56'0 0.1
2016-Aug-03 04:33N 29°55' W 089°56'0 0.1
2016-Aug-03 03:33N 29°55' W 089°56'0 0.1
2016-Aug-03 02:33N 29°55' W 089°56'0 0.4
2016-Aug-03 01:33N 29°55' W 089°56'0 0.4
2016-Aug-03 00:32N 29°56' W 089°56'1 0.7
2016-Aug-02 23:33N 29°55' W 089°56'0 0.0
2016-Aug-02 22:33N 29°55' W 089°56'0 0.0
2016-Aug-02 21:33N 29°55' W 089°56'0 0.0
2016-Aug-02 20:33N 29°55' W 089°56'0 0.0
2016-Aug-02 19:33N 29°55' W 089°56'0 0.0
2016-Aug-02 18:33N 29°55' W 089°56'0 0.0
2016-Aug-02 17:33N 29°55' W 089°56'0 0.0
2016-Aug-02 16:33N 29°55' W 089°56'0 0.3
2016-Aug-02 15:33N 29°55' W 089°55'0 0.0
2016-Aug-02 14:32N 29°55' W 089°55'0 0.0
2016-Aug-02 13:33N 29°55' W 089°55'1 0.6
2016-Aug-02 12:33N 29°55' W 089°56'0 0.2
2016-Aug-02 11:33N 29°55' W 089°56'0 0.0
2016-Aug-02 10:33N 29°55' W 089°56'0 0.2
2016-Aug-02 09:33N 29°55' W 089°56'0 0.4
2016-Aug-02 08:33N 29°55' W 089°55'0 0.1
2016-Aug-02 07:33N 29°55' W 089°55'0 0.1
2016-Aug-02 06:33N 29°55' W 089°55'1 0.3
2016-Aug-02 04:33N 29°55' W 089°56'1 0.5
2016-Aug-02 03:33N 29°55' W 089°55'1 1.1
2016-Aug-02 02:33N 29°55' W 089°57'0 0.0
2016-Aug-02 01:34N 29°55' W 089°57'1 1.0
2016-Aug-02 00:33N 29°55' W 089°58'2 1.8
2016-Aug-01 23:33N 29°55' W 089°56'0 0.2
2016-Aug-01 22:29N 29°55' W 089°56'1 0.7
2016-Aug-01 21:33N 29°55' W 089°56'0 0.0
2016-Aug-01 20:33N 29°55' W 089°56'0 0.4
2016-Aug-01 19:34N 29°55' W 089°56'0 0.2
2016-Aug-01 18:32N 29°55' W 089°56'1 0.5
2016-Aug-01 17:33N 29°55' W 089°56'0 0.0
2016-Aug-01 16:33N 29°55' W 089°56'3 2.7
2016-Aug-01 15:33N 29°56' W 089°59'0 0.3
2016-Aug-01 14:33N 29°56' W 089°59'1 0.8
2016-Aug-01 13:33N 29°57' W 089°60'0 0.4
2016-Aug-01 12:33N 29°56' W 089°60'4 3.7
2016-Aug-01 11:33N 29°55' W 089°56'0 0.0
2016-Aug-01 10:33N 29°55' W 089°56'1 0.5
2016-Aug-01 09:33N 29°55' W 089°56'0 0.3
2016-Aug-01 08:33N 29°55' W 089°56'0 0.2
2016-Aug-01 07:33N 29°55' W 089°56'2 0.8
2016-Aug-01 04:33N 29°56' W 089°59'3 2.6
2016-Aug-01 03:33N 29°55' W 089°56'0 0.3
2016-Aug-01 02:33N 29°55' W 089°56'0 0.1
2016-Aug-01 01:33N 29°55' W 089°56'0 0.1
2016-Aug-01 00:32N 29°55' W 089°56'0 0.4
2016-Jul-31 23:33N 29°55' W 089°56'0 0.2
2016-Jul-31 22:33N 29°55' W 089°56'0 0.2
2016-Jul-31 21:33N 29°55' W 089°56'0 0.0
2016-Jul-31 20:33N 29°55' W 089°56'0 0.0
2016-Jul-31 19:33N 29°55' W 089°56'0 0.2
2016-Jul-31 18:33N 29°55' W 089°56'0 0.3
2016-Jul-31 17:32N 29°55' W 089°56'0 0.0
2016-Jul-31 16:33N 29°55' W 089°56'0 0.1
2016-Jul-31 15:32N 29°55' W 089°56'0 0.0
2016-Jul-31 14:32N 29°55' W 089°56'0 0.0
2016-Jul-31 13:32N 29°55' W 089°56'0 0.0
2016-Jul-31 12:33N 29°55' W 089°56'0 0.0
2016-Jul-31 11:32N 29°55' W 089°56'0 0.0
2016-Jul-31 10:33N 29°55' W 089°56'0 0.4
2016-Jul-31 09:33N 29°55' W 089°56'1 0.7
2016-Jul-31 08:33N 29°55' W 089°57'1 0.5
2016-Jul-31 07:25N 29°55' W 089°56'0 0.0
2016-Jul-31 06:33N 29°55' W 089°56'0 0.1
2016-Jul-31 05:33N 29°55' W 089°56'0 0.4
2016-Jul-31 04:33N 29°55' W 089°56'0 0.0
2016-Jul-31 03:33N 29°55' W 089°56'0 0.0
2016-Jul-31 02:33N 29°55' W 089°56'0 0.0
2016-Jul-31 01:33N 29°55' W 089°56'0 0.3
2016-Jul-31 00:33N 29°55' W 089°56'1 0.3
2016-Jul-30 22:30N 29°55' W 089°56'1 1.0
2016-Jul-30 21:33N 29°55' W 089°57'0 0.0
2016-Jul-30 20:33N 29°55' W 089°57'0 0.0
2016-Jul-30 19:33N 29°55' W 089°57'0 0.2
2016-Jul-30 18:33N 29°55' W 089°56'1 0.5
2016-Jul-30 17:33N 29°55' W 089°56'1 0.6
2016-Jul-30 16:33N 29°55' W 089°57'1 0.5
2016-Jul-30 15:33N 29°55' W 089°56'0 0.3
2016-Jul-30 14:33N 29°55' W 089°56'0 0.0
2016-Jul-30 13:33N 29°55' W 089°56'0 0.0
2016-Jul-30 12:33N 29°55' W 089°56'0 0.1
2016-Jul-30 11:33N 29°55' W 089°56'0 0.0
2016-Jul-30 10:33N 29°55' W 089°56'0 0.2
2016-Jul-30 09:33N 29°55' W 089°56'0 0.0
2016-Jul-30 08:33N 29°55' W 089°56'0 0.3
2016-Jul-30 07:33N 29°55' W 089°56'0 0.4
2016-Jul-30 06:33N 29°55' W 089°56'1 0.6
2016-Jul-30 05:33N 29°55' W 089°57'1 0.5
2016-Jul-30 04:33N 29°55' W 089°56'0 0.1
2016-Jul-30 03:33N 29°55' W 089°56'1 0.8
2016-Jul-30 02:33N 29°55' W 089°56'0 0.1
2016-Jul-30 01:33N 29°55' W 089°56'0 0.0
2016-Jul-30 00:33N 29°55' W 089°56'0 0.3
2016-Jul-29 23:33N 29°55' W 089°56'0 0.1
2016-Jul-29 22:30N 29°55' W 089°56'0 0.4
2016-Jul-29 21:32N 29°55' W 089°56'1 0.6
2016-Jul-29 20:33N 29°55' W 089°55'1 0.5
2016-Jul-29 19:33N 29°55' W 089°56'0 0.2
2016-Jul-29 18:33N 29°55' W 089°56'0 0.0
2016-Jul-29 17:33N 29°55' W 089°56'0 0.5
2016-Jul-29 16:33N 29°55' W 089°56'0 0.3
2016-Jul-29 15:33N 29°55' W 089°56'0 0.5
2016-Jul-29 14:33N 29°55' W 089°57'1 0.7
2016-Jul-29 13:34N 29°55' W 089°56'0 0.2
2016-Jul-29 12:33N 29°55' W 089°56'0 0.1
2016-Jul-29 10:30N 29°55' W 089°56'2 2.0
2016-Jul-29 09:33N 29°54' W 089°54'3 2.4
2016-Jul-29 08:30N 29°55' W 089°56'0 0.0
2016-Jul-29 07:33N 29°55' W 089°56'0 0.4
2016-Jul-29 06:33N 29°55' W 089°56'0 0.0
2016-Jul-29 05:33N 29°55' W 089°56'0 0.0
2016-Jul-29 04:33N 29°55' W 089°56'0 0.3
2016-Jul-29 03:33N 29°55' W 089°56'0 0.3
2016-Jul-29 02:33N 29°55' W 089°56'0 0.0
2016-Jul-29 01:33N 29°55' W 089°56'0 0.3
2016-Jul-29 00:33N 29°55' W 089°56'0 0.3
2016-Jul-28 23:33N 29°55' W 089°56'0 0.1
2016-Jul-28 22:33N 29°55' W 089°56'0 0.2
2016-Jul-28 21:33N 29°55' W 089°56'0 0.0
2016-Jul-28 20:33N 29°55' W 089°56'1 0.6
2016-Jul-28 19:34N 29°55' W 089°55'0 0.1
2016-Jul-28 18:33N 29°55' W 089°55'1 0.4
2016-Jul-28 16:33N 29°55' W 089°56'4 3.7
2016-Jul-28 15:33N 29°57' W 089°60'5 3.4
2016-Jul-28 14:13N 29°55' W 089°55'1 2.1
2016-Jul-28 13:33N 29°54' W 089°54'2 2.5
2016-Jul-28 12:33N 29°55' W 089°56'1 0.6
2016-Jul-28 11:33N 29°55' W 089°56'0 0.1
2016-Jul-28 10:33N 29°55' W 089°56'1 1.0
2016-Jul-28 09:33N 29°55' W 089°57'1 0.9
2016-Jul-28 08:33N 29°55' W 089°56'0 0.0
2016-Jul-28 07:33N 29°55' W 089°56'0 0.1
2016-Jul-28 06:33N 29°55' W 089°56'1 0.5
2016-Jul-28 05:32N 29°55' W 089°55'1 0.7
2016-Jul-28 04:34N 29°55' W 089°56'0 0.4
2016-Jul-28 03:33N 29°55' W 089°56'1 0.6
2016-Jul-28 02:33N 29°55' W 089°56'0 0.1
2016-Jul-28 01:33N 29°55' W 089°56'0 0.4
2016-Jul-28 00:33N 29°55' W 089°55'0 0.4
2016-Jul-27 23:33N 29°55' W 089°56'0 0.0
2016-Jul-27 22:33N 29°55' W 089°56'1 0.6
2016-Jul-27 21:33N 29°55' W 089°56'1 1.4
2016-Jul-27 20:33N 29°55' W 089°58'2 0.8
2016-Jul-27 18:26N 29°55' W 089°56'0 0.0
2016-Jul-27 17:33N 29°55' W 089°56'0 0.2
2016-Jul-27 16:34N 29°55' W 089°56'3 3.4
2016-Jul-27 15:33N 29°57' W 089°60'3 3.1
2016-Jul-27 14:33N 29°55' W 089°56'0 0.0
2016-Jul-27 13:33N 29°55' W 089°56'1 0.5
2016-Jul-27 12:33N 29°55' W 089°57'1 1.3
2016-Jul-27 11:33N 29°55' W 089°56'0 0.2
2016-Jul-27 10:33N 29°55' W 089°56'0 0.3
2016-Jul-27 09:33N 29°55' W 089°56'0 0.4
2016-Jul-27 08:33N 29°55' W 089°56'1 0.6
2016-Jul-27 07:34N 29°55' W 089°56'0 0.0
2016-Jul-27 06:33N 29°55' W 089°56'0 0.2
2016-Jul-27 05:33N 29°55' W 089°56'2 2.5
2016-Jul-27 04:34N 29°56' W 089°59'3 2.5
2016-Jul-27 03:33N 29°55' W 089°56'0 0.5
2016-Jul-27 02:33N 29°55' W 089°56'1 0.7
2016-Jul-27 01:33N 29°55' W 089°57'2 1.9
2016-Jul-27 00:33N 29°56' W 089°59'3 3.3
2016-Jul-26 23:34N 29°55' W 089°56'0 0.0
2016-Jul-26 22:33N 29°55' W 089°56'1 0.7
2016-Jul-26 21:34N 29°55' W 089°56'0 0.2
2016-Jul-26 20:33N 29°55' W 089°56'0 0.0
2016-Jul-26 19:33N 29°55' W 089°56'0 0.0
2016-Jul-26 18:22N 29°55' W 089°56'0 0.2
2016-Jul-26 17:26N 29°55' W 089°56'0 0.3
2016-Jul-26 16:34N 29°55' W 089°56'0 0.4
2016-Jul-26 15:33N 29°55' W 089°56'1 0.6
2016-Jul-26 14:34N 29°55' W 089°56'0 0.3
2016-Jul-26 13:34N 29°55' W 089°55'0 0.3
2016-Jul-26 12:33N 29°55' W 089°56'0 0.1
2016-Jul-26 11:33N 29°55' W 089°56'0 0.3
2016-Jul-26 10:33N 29°55' W 089°56'4 4.2
2016-Jul-26 09:34N 29°57' W 090°00'4 3.6
2016-Jul-26 08:32N 29°55' W 089°56'0 0.0
2016-Jul-26 07:33N 29°55' W 089°56'1 1.3
2016-Jul-26 06:34N 29°55' W 089°58'1 0.9
2016-Jul-26 05:34N 29°55' W 089°56'1 0.5
2016-Jul-26 04:33N 29°55' W 089°56'4 3.8
2016-Jul-26 03:34N 29°57' W 089°60'4 3.5
2016-Jul-26 02:33N 29°55' W 089°56'0 0.1
2016-Jul-26 01:34N 29°55' W 089°56'0 0.2
2016-Jul-26 00:34N 29°55' W 089°56'1 0.7
2016-Jul-25 23:34N 29°55' W 089°56'0 0.0
2016-Jul-25 22:32N 29°55' W 089°56'  
Track history (hours):
 
Tides and Currents Weather Stations Pressure Air Temp Water Temp Dewpoint Dewpoint Depression Visibility Wind Speed Wind Dir Waves Ship Positions

Omaha

Owner: Turn Services, LLC, New Orleans, LA. More information available from US FCC via Universal Licensing System and Coast Guard Vessel Documentation Center.

Last reported at 2016-Aug-04 22:09 UTC. Time now 2016-Aug-30 10:57 UTC.
Position N 29°55' W 089°56'.
Warning: this ship's position is 25 days out of date.

Length 13 m; draft 3.5 m.

Type: Pilot. MMSI: 367102030.

Date/timePositionNaut miles runAvg speedWind from/ knotsBaromVisibWave heightAir tempDewpointWater temp
2016-Aug-04 22:09N 29°55' W 089°56'0 0.0
2016-Aug-04 21:28N 29°55' W 089°56'0 0.0
2016-Aug-04 20:33N 29°55' W 089°56'0 0.0
2016-Aug-04 19:34N 29°55' W 089°56'0 0.0
2016-Aug-04 18:33N 29°55' W 089°56'0 0.0
2016-Aug-04 17:34N 29°55' W 089°56'0 0.0
2016-Aug-04 16:33N 29°55' W 089°56'0 0.0
2016-Aug-04 15:32N 29°55' W 089°56'0 0.0
2016-Aug-04 14:25N 29°55' W 089°56'0 0.0
2016-Aug-04 13:22N 29°55' W 089°56'0 0.0
2016-Aug-04 12:13N 29°55' W 089°56'0 0.0
2016-Aug-04 11:04N 29°55' W 089°56'0 0.0
2016-Aug-04 10:33N 29°55' W 089°56'0 0.5
2016-Aug-04 09:33N 29°55' W 089°56'0 0.3
2016-Aug-04 08:33N 29°55' W 089°57'0 0.0
2016-Aug-04 07:33N 29°55' W 089°57'1 0.5
2016-Aug-04 06:32N 29°55' W 089°56'0 0.0
2016-Aug-04 04:31N 29°55' W 089°56'0 0.1
2016-Aug-04 03:34N 29°55' W 089°56'1 0.6
2016-Aug-04 02:34N 29°55' W 089°56'3 3.2
2016-Aug-04 01:34N 29°56' W 089°59'3 2.7
2016-Aug-04 00:34N 29°55' W 089°56'1 0.5
2016-Aug-03 23:33N 29°55' W 089°56'0 0.0
2016-Aug-03 22:33N 29°55' W 089°56'0 0.0
2016-Aug-03 21:33N 29°55' W 089°56'0 0.0
2016-Aug-03 20:33N 29°55' W 089°56'0 0.0
2016-Aug-03 19:32N 29°55' W 089°56'0 0.0
2016-Aug-03 18:33N 29°55' W 089°56'0 0.0
2016-Aug-03 17:34N 29°55' W 089°56'0 0.0
2016-Aug-03 16:33N 29°55' W 089°56'0 0.0
2016-Aug-03 15:34N 29°55' W 089°56'0 0.0
2016-Aug-03 14:33N 29°55' W 089°56'0 0.0
2016-Aug-03 13:33N 29°55' W 089°56'0 0.0
2016-Aug-03 12:33N 29°55' W 089°56'0 0.0
2016-Aug-03 11:34N 29°55' W 089°56'0 0.0
2016-Aug-03 10:33N 29°55' W 089°56'1 0.6
2016-Aug-03 09:33N 29°55' W 089°56'0 0.1
2016-Aug-03 08:33N 29°55' W 089°56'0 0.0
2016-Aug-03 07:33N 29°55' W 089°56'0 0.0
2016-Aug-03 06:33N 29°55' W 089°56'0 0.1
2016-Aug-03 04:33N 29°55' W 089°56'0 0.1
2016-Aug-03 03:33N 29°55' W 089°56'0 0.1
2016-Aug-03 02:33N 29°55' W 089°56'0 0.4
2016-Aug-03 01:33N 29°55' W 089°56'0 0.4
2016-Aug-03 00:32N 29°56' W 089°56'1 0.7
2016-Aug-02 23:33N 29°55' W 089°56'0 0.0
2016-Aug-02 22:33N 29°55' W 089°56'0 0.0
2016-Aug-02 21:33N 29°55' W 089°56'0 0.0
2016-Aug-02 20:33N 29°55' W 089°56'0 0.0
2016-Aug-02 19:33N 29°55' W 089°56'0 0.0
2016-Aug-02 18:33N 29°55' W 089°56'0 0.0
2016-Aug-02 17:33N 29°55' W 089°56'0 0.0
2016-Aug-02 16:33N 29°55' W 089°56'0 0.3
2016-Aug-02 15:33N 29°55' W 089°55'0 0.0
2016-Aug-02 14:32N 29°55' W 089°55'0 0.0
2016-Aug-02 13:33N 29°55' W 089°55'1 0.6
2016-Aug-02 12:33N 29°55' W 089°56'0 0.2
2016-Aug-02 11:33N 29°55' W 089°56'0 0.0
2016-Aug-02 10:33N 29°55' W 089°56'0 0.2
2016-Aug-02 09:33N 29°55' W 089°56'0 0.4
2016-Aug-02 08:33N 29°55' W 089°55'0 0.1
2016-Aug-02 07:33N 29°55' W 089°55'0 0.1
2016-Aug-02 06:33N 29°55' W 089°55'1 0.3
2016-Aug-02 04:33N 29°55' W 089°56'1 0.5
2016-Aug-02 03:33N 29°55' W 089°55'1 1.1
2016-Aug-02 02:33N 29°55' W 089°57'0 0.0
2016-Aug-02 01:34N 29°55' W 089°57'1 1.0
2016-Aug-02 00:33N 29°55' W 089°58'2 1.8
2016-Aug-01 23:33N 29°55' W 089°56'0 0.2
2016-Aug-01 22:29N 29°55' W 089°56'1 0.7
2016-Aug-01 21:33N 29°55' W 089°56'0 0.0
2016-Aug-01 20:33N 29°55' W 089°56'0 0.4
2016-Aug-01 19:34N 29°55' W 089°56'0 0.2
2016-Aug-01 18:32N 29°55' W 089°56'1 0.5
2016-Aug-01 17:33N 29°55' W 089°56'0 0.0
2016-Aug-01 16:33N 29°55' W 089°56'3 2.7
2016-Aug-01 15:33N 29°56' W 089°59'0 0.3
2016-Aug-01 14:33N 29°56' W 089°59'1 0.8
2016-Aug-01 13:33N 29°57' W 089°60'0 0.4
2016-Aug-01 12:33N 29°56' W 089°60'4 3.7
2016-Aug-01 11:33N 29°55' W 089°56'0 0.0
2016-Aug-01 10:33N 29°55' W 089°56'1 0.5
2016-Aug-01 09:33N 29°55' W 089°56'0 0.3
2016-Aug-01 08:33N 29°55' W 089°56'0 0.2
2016-Aug-01 07:33N 29°55' W 089°56'2 0.8
2016-Aug-01 04:33N 29°56' W 089°59'3 2.6
2016-Aug-01 03:33N 29°55' W 089°56'0 0.3
2016-Aug-01 02:33N 29°55' W 089°56'0 0.1
2016-Aug-01 01:33N 29°55' W 089°56'0 0.1
2016-Aug-01 00:32N 29°55' W 089°56'0 0.4
2016-Jul-31 23:33N 29°55' W 089°56'0 0.2
2016-Jul-31 22:33N 29°55' W 089°56'0 0.2
2016-Jul-31 21:33N 29°55' W 089°56'0 0.0
2016-Jul-31 20:33N 29°55' W 089°56'0 0.0
2016-Jul-31 19:33N 29°55' W 089°56'0 0.2
2016-Jul-31 18:33N 29°55' W 089°56'0 0.3
2016-Jul-31 17:32N 29°55' W 089°56'0 0.0
2016-Jul-31 16:33N 29°55' W 089°56'0 0.1
2016-Jul-31 15:32N 29°55' W 089°56'0 0.0
2016-Jul-31 14:32N 29°55' W 089°56'0 0.0
2016-Jul-31 13:32N 29°55' W 089°56'0 0.0
2016-Jul-31 12:33N 29°55' W 089°56'0 0.0
2016-Jul-31 11:32N 29°55' W 089°56'0 0.0
2016-Jul-31 10:33N 29°55' W 089°56'0 0.4
2016-Jul-31 09:33N 29°55' W 089°56'1 0.7
2016-Jul-31 08:33N 29°55' W 089°57'1 0.5
2016-Jul-31 07:25N 29°55' W 089°56'0 0.0
2016-Jul-31 06:33N 29°55' W 089°56'0 0.1
2016-Jul-31 05:33N 29°55' W 089°56'0 0.4
2016-Jul-31 04:33N 29°55' W 089°56'0 0.0
2016-Jul-31 03:33N 29°55' W 089°56'0 0.0
2016-Jul-31 02:33N 29°55' W 089°56'0 0.0
2016-Jul-31 01:33N 29°55' W 089°56'0 0.3
2016-Jul-31 00:33N 29°55' W 089°56'1 0.3
2016-Jul-30 22:30N 29°55' W 089°56'1 1.0
2016-Jul-30 21:33N 29°55' W 089°57'0 0.0
2016-Jul-30 20:33N 29°55' W 089°57'0 0.0
2016-Jul-30 19:33N 29°55' W 089°57'0 0.2
2016-Jul-30 18:33N 29°55' W 089°56'1 0.5
2016-Jul-30 17:33N 29°55' W 089°56'1 0.6
2016-Jul-30 16:33N 29°55' W 089°57'1 0.5
2016-Jul-30 15:33N 29°55' W 089°56'0 0.3
2016-Jul-30 14:33N 29°55' W 089°56'0 0.0
2016-Jul-30 13:33N 29°55' W 089°56'0 0.0
2016-Jul-30 12:33N 29°55' W 089°56'0 0.1
2016-Jul-30 11:33N 29°55' W 089°56'0 0.0
2016-Jul-30 10:33N 29°55' W 089°56'0 0.2
2016-Jul-30 09:33N 29°55' W 089°56'0 0.0
2016-Jul-30 08:33N 29°55' W 089°56'0 0.3
2016-Jul-30 07:33N 29°55' W 089°56'0 0.4
2016-Jul-30 06:33N 29°55' W 089°56'1 0.6
2016-Jul-30 05:33N 29°55' W 089°57'1 0.5
2016-Jul-30 04:33N 29°55' W 089°56'0 0.1
2016-Jul-30 03:33N 29°55' W 089°56'1 0.8
2016-Jul-30 02:33N 29°55' W 089°56'0 0.1
2016-Jul-30 01:33N 29°55' W 089°56'0 0.0
2016-Jul-30 00:33N 29°55' W 089°56'0 0.3
2016-Jul-29 23:33N 29°55' W 089°56'0 0.1
2016-Jul-29 22:30N 29°55' W 089°56'0 0.4
2016-Jul-29 21:32N 29°55' W 089°56'1 0.6
2016-Jul-29 20:33N 29°55' W 089°55'1 0.5
2016-Jul-29 19:33N 29°55' W 089°56'0 0.2
2016-Jul-29 18:33N 29°55' W 089°56'0 0.0
2016-Jul-29 17:33N 29°55' W 089°56'0 0.5
2016-Jul-29 16:33N 29°55' W 089°56'0 0.3
2016-Jul-29 15:33N 29°55' W 089°56'0 0.5
2016-Jul-29 14:33N 29°55' W 089°57'1 0.7
2016-Jul-29 13:34N 29°55' W 089°56'0 0.2
2016-Jul-29 12:33N 29°55' W 089°56'0 0.1
2016-Jul-29 10:30N 29°55' W 089°56'2 2.0
2016-Jul-29 09:33N 29°54' W 089°54'3 2.4
2016-Jul-29 08:30N 29°55' W 089°56'0 0.0
2016-Jul-29 07:33N 29°55' W 089°56'0 0.4
2016-Jul-29 06:33N 29°55' W 089°56'0 0.0
2016-Jul-29 05:33N 29°55' W 089°56'0 0.0
2016-Jul-29 04:33N 29°55' W 089°56'0 0.3
2016-Jul-29 03:33N 29°55' W 089°56'0 0.3
2016-Jul-29 02:33N 29°55' W 089°56'0 0.0
2016-Jul-29 01:33N 29°55' W 089°56'0 0.3
2016-Jul-29 00:33N 29°55' W 089°56'0 0.3
2016-Jul-28 23:33N 29°55' W 089°56'0 0.1
2016-Jul-28 22:33N 29°55' W 089°56'0 0.2
2016-Jul-28 21:33N 29°55' W 089°56'0 0.0
2016-Jul-28 20:33N 29°55' W 089°56'1 0.6
2016-Jul-28 19:34N 29°55' W 089°55'0 0.1
2016-Jul-28 18:33N 29°55' W 089°55'1 0.4
2016-Jul-28 16:33N 29°55' W 089°56'4 3.7
2016-Jul-28 15:33N 29°57' W 089°60'5 3.4
2016-Jul-28 14:13N 29°55' W 089°55'1 2.1
2016-Jul-28 13:33N 29°54' W 089°54'2 2.5
2016-Jul-28 12:33N 29°55' W 089°56'1 0.6
2016-Jul-28 11:33N 29°55' W 089°56'0 0.1
2016-Jul-28 10:33N 29°55' W 089°56'1 1.0
2016-Jul-28 09:33N 29°55' W 089°57'1 0.9
2016-Jul-28 08:33N 29°55' W 089°56'0 0.0
2016-Jul-28 07:33N 29°55' W 089°56'0 0.1
2016-Jul-28 06:33N 29°55' W 089°56'1 0.5
2016-Jul-28 05:32N 29°55' W 089°55'1 0.7
2016-Jul-28 04:34N 29°55' W 089°56'0 0.4
2016-Jul-28 03:33N 29°55' W 089°56'1 0.6
2016-Jul-28 02:33N 29°55' W 089°56'0 0.1
2016-Jul-28 01:33N 29°55' W 089°56'0 0.4
2016-Jul-28 00:33N 29°55' W 089°55'0 0.4
2016-Jul-27 23:33N 29°55' W 089°56'0 0.0
2016-Jul-27 22:33N 29°55' W 089°56'1 0.6
2016-Jul-27 21:33N 29°55' W 089°56'1 1.4
2016-Jul-27 20:33N 29°55' W 089°58'2 0.8
2016-Jul-27 18:26N 29°55' W 089°56'0 0.0
2016-Jul-27 17:33N 29°55' W 089°56'0 0.2
2016-Jul-27 16:34N 29°55' W 089°56'3 3.4
2016-Jul-27 15:33N 29°57' W 089°60'3 3.1
2016-Jul-27 14:33N 29°55' W 089°56'0 0.0
2016-Jul-27 13:33N 29°55' W 089°56'1 0.5
2016-Jul-27 12:33N 29°55' W 089°57'1 1.3
2016-Jul-27 11:33N 29°55' W 089°56'0 0.2
2016-Jul-27 10:33N 29°55' W 089°56'0 0.3
2016-Jul-27 09:33N 29°55' W 089°56'0 0.4
2016-Jul-27 08:33N 29°55' W 089°56'1 0.6
2016-Jul-27 07:34N 29°55' W 089°56'0 0.0
2016-Jul-27 06:33N 29°55' W 089°56'0 0.2
2016-Jul-27 05:33N 29°55' W 089°56'2 2.5
2016-Jul-27 04:34N 29°56' W 089°59'3 2.5
2016-Jul-27 03:33N 29°55' W 089°56'0 0.5
2016-Jul-27 02:33N 29°55' W 089°56'1 0.7
2016-Jul-27 01:33N 29°55' W 089°57'2 1.9
2016-Jul-27 00:33N 29°56' W 089°59'3 3.3
2016-Jul-26 23:34N 29°55' W 089°56'0 0.0
2016-Jul-26 22:33N 29°55' W 089°56'1 0.7
2016-Jul-26 21:34N 29°55' W 089°56'0 0.2
2016-Jul-26 20:33N 29°55' W 089°56'0 0.0
2016-Jul-26 19:33N 29°55' W 089°56'0 0.0
2016-Jul-26 18:22N 29°55' W 089°56'0 0.2
2016-Jul-26 17:26N 29°55' W 089°56'0 0.3
2016-Jul-26 16:34N 29°55' W 089°56'0 0.4
2016-Jul-26 15:33N 29°55' W 089°56'1 0.6
2016-Jul-26 14:34N 29°55' W 089°56'0 0.3
2016-Jul-26 13:34N 29°55' W 089°55'0 0.3
2016-Jul-26 12:33N 29°55' W 089°56'0 0.1
2016-Jul-26 11:33N 29°55' W 089°56'0 0.3
2016-Jul-26 10:33N 29°55' W 089°56'4 4.2
2016-Jul-26 09:34N 29°57' W 090°00'4 3.6
2016-Jul-26 08:32N 29°55' W 089°56'0 0.0
2016-Jul-26 07:33N 29°55' W 089°56'1 1.3
2016-Jul-26 06:34N 29°55' W 089°58'1 0.9
2016-Jul-26 05:34N 29°55' W 089°56'1 0.5
2016-Jul-26 04:33N 29°55' W 089°56'4 3.8
2016-Jul-26 03:34N 29°57' W 089°60'4 3.5
2016-Jul-26 02:33N 29°55' W 089°56'0 0.1
2016-Jul-26 01:34N 29°55' W 089°56'0 0.2
2016-Jul-26 00:34N 29°55' W 089°56'1 0.7
2016-Jul-25 23:34N 29°55' W 089°56'0 0.0
2016-Jul-25 22:32N 29°55' W 089°56'  

Dump ship's entire track history